createdAt,value
2022-12-25T00:00:45.003Z,6.31
2022-12-25T00:04:47.656Z,6.31
2022-12-25T00:08:51.712Z,6.29
2022-12-25T00:12:54.309Z,6.27
2022-12-25T00:16:56.927Z,6.26
2022-12-25T00:21:00.787Z,6.23
2022-12-25T00:25:05.378Z,6.18
2022-12-25T00:29:08.044Z,6.12
2022-12-25T00:33:10.703Z,6.10
2022-12-25T00:37:13.320Z,6.06
2022-12-25T00:41:39.230Z,6.02
2022-12-25T00:45:41.923Z,5.99
2022-12-25T00:49:44.943Z,5.91
2022-12-25T00:53:47.543Z,5.87
2022-12-25T00:57:51.577Z,5.69
2022-12-25T01:01:54.249Z,5.61
2022-12-25T01:05:59.545Z,5.62
2022-12-25T01:10:20.735Z,5.64
2022-12-25T01:14:24.739Z,5.62
2022-12-25T01:18:27.359Z,5.62
2022-12-25T01:22:30.001Z,5.66
2022-12-25T01:26:32.623Z,5.73
2022-12-25T01:30:36.634Z,5.78
2022-12-25T01:34:39.458Z,5.82
2022-12-25T01:38:42.176Z,5.87
2022-12-25T01:42:44.796Z,5.91
2022-12-25T01:46:48.747Z,5.93
2022-12-25T01:50:55.404Z,5.93
2022-12-25T01:54:59.480Z,5.92
2022-12-25T01:59:03.898Z,5.91
2022-12-25T02:03:07.952Z,5.89
2022-12-25T02:07:14.353Z,5.91
2022-12-25T02:11:30.903Z,5.89
2022-12-25T02:15:41.926Z,5.89
2022-12-25T02:20:14.759Z,5.84
2022-12-25T02:24:43.006Z,5.79
2022-12-25T02:28:54.094Z,5.74
2022-12-25T02:33:19.796Z,5.67
2022-12-25T02:37:29.024Z,5.59
2022-12-25T02:41:36.806Z,5.55
2022-12-25T02:46:03.130Z,5.51
2022-12-25T02:50:25.428Z,5.42
2022-12-25T02:54:50.875Z,5.40
2022-12-25T02:59:11.383Z,5.30
2022-12-25T03:03:34.743Z,5.23
2022-12-25T03:07:40.858Z,5.14
2022-12-25T03:11:45.551Z,5.00
2022-12-25T03:16:07.131Z,4.90
2022-12-25T03:20:29.677Z,4.75
2022-12-25T03:24:50.153Z,4.51
2022-12-25T03:28:52.762Z,4.34
2022-12-25T03:33:23.356Z,4.28
2022-12-25T03:37:51.065Z,4.33
2022-12-25T03:42:17.386Z,4.48
2022-12-25T03:46:39.570Z,4.59
2022-12-25T03:51:03.566Z,4.65
2022-12-25T03:55:29.290Z,4.65
2022-12-25T03:59:49.316Z,4.65
2022-12-25T04:04:09.406Z,4.70
2022-12-25T04:08:29.688Z,4.70
2022-12-25T04:12:51.164Z,4.70
2022-12-25T04:17:11.243Z,4.72
2022-12-25T04:21:31.267Z,4.75
2022-12-25T04:25:51.350Z,4.75
2022-12-25T04:30:12.718Z,4.72
2022-12-25T04:34:32.915Z,4.65
2022-12-25T04:38:36.631Z,4.54
2022-12-25T04:42:39.235Z,4.43
2022-12-25T04:46:43.212Z,4.33
2022-12-25T04:50:45.984Z,4.26
2022-12-25T04:54:48.587Z,4.21
2022-12-25T04:58:51.251Z,4.21
2022-12-25T05:02:55.334Z,4.23
2022-12-25T05:06:57.980Z,4.19
2022-12-25T05:11:00.671Z,4.06
2022-12-25T05:15:03.307Z,4.01
2022-12-25T05:19:07.315Z,3.87
2022-12-25T05:23:11.529Z,3.76
2022-12-25T05:27:15.055Z,3.72
2022-12-25T05:31:18.852Z,3.80
2022-12-25T05:35:22.824Z,3.82
2022-12-25T05:39:25.678Z,3.81
2022-12-25T05:43:29.082Z,3.84
2022-12-25T05:47:31.692Z,3.83
2022-12-25T05:51:35.744Z,3.78
2022-12-25T05:55:39.827Z,3.86
2022-12-25T05:59:42.458Z,3.94
2022-12-25T06:03:45.177Z,4.00
2022-12-25T06:07:49.452Z,4.12
2022-12-25T06:11:52.113Z,4.14
2022-12-25T06:15:54.750Z,4.23
2022-12-25T06:19:57.459Z,4.26
2022-12-25T06:24:02.007Z,4.29
2022-12-25T06:28:05.071Z,4.31
2022-12-25T06:32:07.757Z,4.31
2022-12-25T06:36:15.207Z,4.32
2022-12-25T06:40:19.923Z,4.35
2022-12-25T06:44:22.703Z,4.28
2022-12-25T06:48:25.292Z,4.33
2022-12-25T06:52:27.850Z,4.35
2022-12-25T06:56:32.921Z,4.37
2022-12-25T07:00:35.536Z,4.46
2022-12-25T07:04:41.686Z,4.46
2022-12-25T07:08:44.450Z,4.52
2022-12-25T07:12:48.515Z,4.56
2022-12-25T07:16:51.215Z,4.52
2022-12-25T07:20:55.808Z,4.52
2022-12-25T07:24:58.470Z,4.59
2022-12-25T07:29:02.417Z,4.91
2022-12-25T07:33:05.267Z,5.51
2022-12-25T07:37:07.872Z,5.63
2022-12-25T07:41:11.128Z,5.78
2022-12-25T07:45:15.113Z,5.19
2022-12-25T07:49:17.790Z,4.98
2022-12-25T07:53:20.397Z,4.94
2022-12-25T07:57:22.982Z,5.05
2022-12-25T08:01:28.545Z,5.10
2022-12-25T08:05:33.689Z,5.18
2022-12-25T08:09:36.683Z,5.32
2022-12-25T08:13:39.322Z,5.34
2022-12-25T08:17:43.309Z,5.45
2022-12-25T08:21:46.014Z,5.48
2022-12-25T08:25:48.648Z,5.70
2022-12-25T08:29:51.289Z,5.73
2022-12-25T08:33:57.389Z,5.82
2022-12-25T08:38:00.053Z,5.92
2022-12-25T08:42:02.765Z,6.13
2022-12-25T08:46:07.233Z,6.22
2022-12-25T08:50:11.755Z,6.23
2022-12-25T08:54:14.691Z,6.21
2022-12-25T08:58:17.702Z,6.14
2022-12-25T09:02:20.467Z,6.03
2022-12-25T09:06:24.624Z,6.00
2022-12-25T09:10:27.402Z,6.00
2022-12-25T09:14:31.281Z,6.08
2022-12-25T09:18:33.936Z,6.14
2022-12-25T09:22:37.910Z,6.13
2022-12-25T09:26:40.829Z,6.09
2022-12-25T09:30:43.577Z,6.11
2022-12-25T09:34:46.196Z,6.13
2022-12-25T09:38:50.192Z,6.20
2022-12-25T09:42:54.932Z,6.30
2022-12-25T09:47:02.660Z,6.31
2022-12-25T09:51:11.113Z,6.42
2022-12-25T09:55:20.488Z,6.51
2022-12-25T09:59:27.209Z,6.63
2022-12-25T10:03:43.560Z,6.75
2022-12-25T10:07:53.409Z,6.84
2022-12-25T10:12:15.301Z,6.96
2022-12-25T10:16:29.183Z,7.08
2022-12-25T10:20:44.100Z,7.17
2022-12-25T10:24:50.551Z,7.27
2022-12-25T10:29:01.035Z,7.43
2022-12-25T10:33:03.675Z,7.66
2022-12-25T10:37:06.394Z,8.02
2022-12-25T10:41:20.065Z,8.43
2022-12-25T10:45:24.023Z,9.12
2022-12-25T10:49:30.475Z,9.38
2022-12-25T10:53:40.088Z,9.87
2022-12-25T10:57:46.858Z,9.44
2022-12-25T11:01:55.042Z,9.41
2022-12-25T11:05:58.577Z,9.12
2022-12-25T11:10:05.776Z,9.48
2022-12-25T11:14:18.282Z,10.33
2022-12-25T11:18:23.907Z,10.45
2022-12-25T11:22:28.808Z,10.65
2022-12-25T11:26:37.274Z,11.04
2022-12-25T11:30:41.719Z,11.47
2022-12-25T11:34:48.070Z,11.55
2022-12-25T11:38:51.946Z,11.53
2022-12-25T11:43:04.136Z,11.87
2022-12-25T11:47:18.394Z,11.97
2022-12-25T11:51:24.031Z,11.58
2022-12-25T11:55:37.141Z,12.03
2022-12-25T11:59:47.077Z,12.15
2022-12-25T12:03:50.325Z,12.06
2022-12-25T12:07:58.602Z,12.61
2022-12-25T12:12:09.670Z,12.23
2022-12-25T12:16:12.876Z,12.30
2022-12-25T12:20:29.284Z,12.53
2022-12-25T12:24:37.089Z,12.27
2022-12-25T12:28:46.053Z,12.09
2022-12-25T12:32:53.832Z,12.39
2022-12-25T12:37:04.822Z,12.95
2022-12-25T12:41:10.579Z,13.28
2022-12-25T12:45:19.240Z,13.61
2022-12-25T12:49:24.776Z,13.14
2022-12-25T12:53:32.338Z,12.09
2022-12-25T12:57:40.191Z,11.38
2022-12-25T13:01:52.710Z,10.86
2022-12-25T13:05:58.895Z,10.85
2022-12-25T13:10:10.249Z,11.22
2022-12-25T13:14:20.708Z,11.53
2022-12-25T13:18:23.637Z,11.88
2022-12-25T13:22:31.533Z,11.88
2022-12-25T13:26:34.249Z,11.91
2022-12-25T13:30:38.221Z,11.99
2022-12-25T13:34:43.179Z,12.22
2022-12-25T13:38:47.652Z,12.50
2022-12-25T13:42:51.115Z,12.63
2022-12-25T13:46:55.083Z,12.71
2022-12-25T13:50:59.025Z,12.54
2022-12-25T13:55:05.064Z,11.43
2022-12-25T13:59:07.694Z,10.73
2022-12-25T14:03:20.355Z,11.01
2022-12-25T14:07:25.004Z,11.23
2022-12-25T14:11:30.493Z,10.55
2022-12-25T14:15:34.926Z,10.68
2022-12-25T14:19:39.275Z,10.93
2022-12-25T14:23:45.382Z,10.56
2022-12-25T14:27:52.472Z,10.98
2022-12-25T14:31:58.247Z,10.85
2022-12-25T14:36:02.272Z,10.34
2022-12-25T14:40:07.555Z,10.04
2022-12-25T14:44:35.006Z,10.17
2022-12-25T14:48:37.659Z,10.06
2022-12-25T14:52:45.243Z,9.95
2022-12-25T14:56:49.276Z,9.93
2022-12-25T15:00:56.270Z,9.68
2022-12-25T15:04:58.972Z,9.28
2022-12-25T15:09:06.412Z,8.95
2022-12-25T15:13:08.995Z,8.63
2022-12-25T15:17:19.902Z,8.51
2022-12-25T15:21:27.176Z,8.43
2022-12-25T15:25:31.117Z,8.32
2022-12-25T15:30:08.655Z,8.20
2022-12-25T15:33:58.027Z,8.07
2022-12-25T15:38:00.696Z,8.05
2022-12-25T15:42:14.628Z,8.01
2022-12-25T15:46:18.034Z,8.01
2022-12-25T15:50:21.522Z,8.01
2022-12-25T15:54:24.115Z,7.81
2022-12-25T15:58:28.054Z,7.73
2022-12-25T16:02:30.808Z,7.78
2022-12-25T16:06:33.509Z,7.81
2022-12-25T16:10:38.996Z,7.76
2022-12-25T16:14:44.369Z,7.71
2022-12-25T16:18:47.908Z,7.76
2022-12-25T16:22:50.691Z,7.77
2022-12-25T16:26:53.376Z,7.73
2022-12-25T16:30:57.484Z,7.69
2022-12-25T16:35:00.109Z,7.69
2022-12-25T16:39:03.976Z,7.64
2022-12-25T16:43:06.862Z,7.48
2022-12-25T16:47:10.798Z,7.40
2022-12-25T16:51:15.264Z,7.30
2022-12-25T16:55:18.033Z,7.28
2022-12-25T16:59:20.709Z,7.25
2022-12-25T17:03:24.688Z,7.22
2022-12-25T17:07:27.343Z,7.24
2022-12-25T17:11:30.680Z,7.29
2022-12-25T17:15:33.236Z,7.32
2022-12-25T17:19:37.180Z,7.36
2022-12-25T17:23:40.131Z,7.35
2022-12-25T17:27:42.720Z,7.29
2022-12-25T17:31:45.338Z,7.26
2022-12-25T17:35:49.332Z,7.14
2022-12-25T17:39:51.917Z,7.12
2022-12-25T17:43:54.604Z,7.10
2022-12-25T17:47:57.606Z,7.07
2022-12-25T17:52:01.888Z,6.94
2022-12-25T17:56:05.212Z,6.79
2022-12-25T18:00:09.057Z,6.92
2022-12-25T18:04:11.673Z,7.50
2022-12-25T18:08:16.360Z,7.99
2022-12-25T18:12:18.969Z,7.78
2022-12-25T18:16:24.382Z,7.47
2022-12-25T18:20:27.017Z,7.24
2022-12-25T18:24:31.873Z,7.07
2022-12-25T18:28:35.691Z,6.95
2022-12-25T18:32:38.833Z,6.86
2022-12-25T18:36:41.622Z,6.76
2022-12-25T18:40:47.679Z,6.70
2022-12-25T18:44:50.377Z,6.61
2022-12-25T18:48:53.445Z,6.40
2022-12-25T18:52:56.190Z,6.26
2022-12-25T18:57:06.900Z,6.05
2022-12-25T19:01:15.073Z,5.81
2022-12-25T19:05:18.844Z,5.86
2022-12-25T19:09:21.486Z,5.93
2022-12-25T19:13:25.556Z,5.90
2022-12-25T19:17:31.867Z,5.78
2022-12-25T19:21:34.964Z,5.67
2022-12-25T19:25:40.462Z,5.56
2022-12-25T19:29:44.445Z,5.52
2022-12-25T19:33:47.075Z,5.52
2022-12-25T19:37:49.692Z,5.47
2022-12-25T19:41:52.334Z,5.44
2022-12-25T19:45:56.659Z,5.39
2022-12-25T19:50:03.104Z,5.13
2022-12-25T19:54:07.228Z,4.81
2022-12-25T19:58:10.023Z,4.85
2022-12-25T20:02:14.445Z,4.99
2022-12-25T20:06:23.259Z,4.99
2022-12-25T20:10:26.011Z,4.98
2022-12-25T20:14:28.669Z,4.85
2022-12-25T20:18:32.867Z,4.72
2022-12-25T20:22:35.577Z,4.68
2022-12-25T20:26:39.827Z,4.70
2022-12-25T20:30:42.412Z,4.69
2022-12-25T20:34:46.463Z,4.68
2022-12-25T20:38:49.123Z,4.52
2022-12-25T20:42:51.749Z,4.54
2022-12-25T20:46:54.912Z,4.66
2022-12-25T20:51:08.872Z,4.74
2022-12-25T20:55:11.502Z,4.79
2022-12-25T20:59:14.592Z,4.81
2022-12-25T21:03:17.348Z,4.84
2022-12-25T21:07:21.407Z,4.82
2022-12-25T21:11:24.359Z,4.72
2022-12-25T21:15:27.024Z,4.70
2022-12-25T21:19:29.784Z,4.69
2022-12-25T21:23:34.202Z,4.66
2022-12-25T21:27:36.859Z,4.64
2022-12-25T21:31:53.439Z,4.62
2022-12-25T21:35:56.177Z,4.51
2022-12-25T21:40:00.317Z,4.46
2022-12-25T21:44:03.164Z,4.41
2022-12-25T21:48:06.228Z,4.33
2022-12-25T21:52:08.807Z,4.25
2022-12-25T21:56:12.767Z,4.18
2022-12-25T22:00:15.756Z,4.12
2022-12-25T22:04:19.913Z,4.10
2022-12-25T22:08:22.489Z,3.98
2022-12-25T22:12:43.972Z,3.93
2022-12-25T22:17:04.047Z,3.71
2022-12-25T22:21:06.721Z,3.41
2022-12-25T22:25:10.764Z,3.35
2022-12-25T22:29:14.750Z,3.38
2022-12-25T22:33:17.408Z,3.50
2022-12-25T22:37:20.271Z,3.59
2022-12-25T22:41:23.726Z,3.58
2022-12-25T22:45:29.871Z,3.39
2022-12-25T22:49:32.655Z,3.34
2022-12-25T22:53:36.656Z,3.29
2022-12-25T22:57:40.682Z,3.48
2022-12-25T23:01:45.060Z,3.67
2022-12-25T23:05:54.633Z,3.86
2022-12-25T23:09:57.215Z,3.96
2022-12-25T23:14:17.170Z,3.94
2022-12-25T23:18:38.807Z,3.96
2022-12-25T23:22:58.814Z,3.98
2022-12-25T23:27:01.425Z,4.04
2022-12-25T23:31:04.169Z,4.07
2022-12-25T23:35:09.083Z,4.13
2022-12-25T23:39:11.722Z,4.20
2022-12-25T23:43:14.394Z,4.21
2022-12-25T23:47:17.375Z,4.25
2022-12-25T23:51:21.270Z,4.31
2022-12-25T23:55:23.900Z,4.43
2022-12-25T23:59:27.972Z,4.50
